sensor_id;sensor_type;location;lat;lon;timestamp;temperature;humidity
40622;DHT22;26324;52.040;11.528;2023-07-29T00:01:28;20.50;77.20
40622;DHT22;26324;52.040;11.528;2023-07-29T00:03:56;20.50;77.30
40622;DHT22;26324;52.040;11.528;2023-07-29T00:06:23;20.60;77.50
40622;DHT22;26324;52.040;11.528;2023-07-29T00:08:51;20.50;77.20
40622;DHT22;26324;52.040;11.528;2023-07-29T00:11:18;20.40;77.30
40622;DHT22;26324;52.040;11.528;2023-07-29T00:13:45;20.40;77.20
40622;DHT22;26324;52.040;11.528;2023-07-29T00:16:14;20.30;77.20
40622;DHT22;26324;52.040;11.528;2023-07-29T00:18:44;20.10;77.60
40622;DHT22;26324;52.040;11.528;2023-07-29T00:21:11;20.00;78.00
40622;DHT22;26324;52.040;11.528;2023-07-29T00:23:39;20.00;78.30
40622;DHT22;26324;52.040;11.528;2023-07-29T00:26:06;20.00;78.60
40622;DHT22;26324;52.040;11.528;2023-07-29T00:28:33;20.00;78.90
40622;DHT22;26324;52.040;11.528;2023-07-29T00:31:02;20.00;78.70
40622;DHT22;26324;52.040;11.528;2023-07-29T00:33:33;20.00;78.30
40622;DHT22;26324;52.040;11.528;2023-07-29T00:36:00;20.10;78.20
40622;DHT22;26324;52.040;11.528;2023-07-29T00:38:29;20.00;78.80
40622;DHT22;26324;52.040;11.528;2023-07-29T00:40:57;20.00;79.10
40622;DHT22;26324;52.040;11.528;2023-07-29T00:43:26;19.90;79.10
40622;DHT22;26324;52.040;11.528;2023-07-29T00:45:54;19.90;79.00
40622;DHT22;26324;52.040;11.528;2023-07-29T00:48:21;19.90;78.20
40622;DHT22;26324;52.040;11.528;2023-07-29T00:50:49;19.90;78.00
40622;DHT22;26324;52.040;11.528;2023-07-29T00:53:17;19.90;78.70
40622;DHT22;26324;52.040;11.528;2023-07-29T00:55:44;19.80;79.40
40622;DHT22;26324;52.040;11.528;2023-07-29T00:58:12;19.70;79.80
40622;DHT22;26324;52.040;11.528;2023-07-29T01:00:40;19.50;80.70
40622;DHT22;26324;52.040;11.528;2023-07-29T01:03:07;19.50;80.90
40622;DHT22;26324;52.040;11.528;2023-07-29T01:08:37;19.60;81.40
40622;DHT22;26324;52.040;11.528;2023-07-29T01:11:20;19.60;81.30
40622;DHT22;26324;52.040;11.528;2023-07-29T01:13:58;19.60;81.20
40622;DHT22;26324;52.040;11.528;2023-07-29T01:16:36;19.70;80.90
40622;DHT22;26324;52.040;11.528;2023-07-29T01:19:06;19.60;80.70
40622;DHT22;26324;52.040;11.528;2023-07-29T01:21:35;19.60;80.40
40622;DHT22;26324;52.040;11.528;2023-07-29T01:24:03;19.50;80.40
40622;DHT22;26324;52.040;11.528;2023-07-29T01:26:31;19.40;80.00
40622;DHT22;26324;52.040;11.528;2023-07-29T01:28:59;19.10;81.20
40622;DHT22;26324;52.040;11.528;2023-07-29T01:31:43;19.10;82.00
40622;DHT22;26324;52.040;11.528;2023-07-29T01:34:28;19.00;82.40
40622;DHT22;26324;52.040;11.528;2023-07-29T01:36:59;19.00;82.30
40622;DHT22;26324;52.040;11.528;2023-07-29T01:39:32;19.00;82.70
40622;DHT22;26324;52.040;11.528;2023-07-29T01:42:02;19.00;83.00
40622;DHT22;26324;52.040;11.528;2023-07-29T01:44:30;19.10;83.00
40622;DHT22;26324;52.040;11.528;2023-07-29T01:46:57;19.20;82.70
40622;DHT22;26324;52.040;11.528;2023-07-29T01:49:24;19.10;82.80
40622;DHT22;26324;52.040;11.528;2023-07-29T01:51:51;19.10;82.70
40622;DHT22;26324;52.040;11.528;2023-07-29T01:54:19;19.20;82.50
40622;DHT22;26324;52.040;11.528;2023-07-29T01:56:46;19.30;82.10
40622;DHT22;26324;52.040;11.528;2023-07-29T01:59:13;19.40;82.00
40622;DHT22;26324;52.040;11.528;2023-07-29T02:01:43;19.30;82.10
40622;DHT22;26324;52.040;11.528;2023-07-29T02:04:10;19.30;81.80
40622;DHT22;26324;52.040;11.528;2023-07-29T02:06:38;19.10;81.90
40622;DHT22;26324;52.040;11.528;2023-07-29T02:09:31;19.10;81.90
40622;DHT22;26324;52.040;11.528;2023-07-29T02:11:59;19.10;82.10
40622;DHT22;26324;52.040;11.528;2023-07-29T02:14:37;19.00;81.90
40622;DHT22;26324;52.040;11.528;2023-07-29T02:17:04;18.80;82.00
40622;DHT22;26324;52.040;11.528;2023-07-29T02:19:31;18.80;81.90
40622;DHT22;26324;52.040;11.528;2023-07-29T02:21:59;18.60;81.90
40622;DHT22;26324;52.040;11.528;2023-07-29T02:24:26;18.50;82.40
40622;DHT22;26324;52.040;11.528;2023-07-29T02:26:54;18.50;83.00
40622;DHT22;26324;52.040;11.528;2023-07-29T02:29:21;18.50;83.00
40622;DHT22;26324;52.040;11.528;2023-07-29T02:31:49;18.50;83.40
40622;DHT22;26324;52.040;11.528;2023-07-29T02:34:16;18.50;83.80
40622;DHT22;26324;52.040;11.528;2023-07-29T02:36:43;18.40;84.10
40622;DHT22;26324;52.040;11.528;2023-07-29T02:39:13;18.40;84.70
40622;DHT22;26324;52.040;11.528;2023-07-29T02:41:40;18.40;84.80
40622;DHT22;26324;52.040;11.528;2023-07-29T02:44:07;18.50;84.80
40622;DHT22;26324;52.040;11.528;2023-07-29T02:46:35;18.50;85.00
40622;DHT22;26324;52.040;11.528;2023-07-29T02:49:03;18.50;85.30
40622;DHT22;26324;52.040;11.528;2023-07-29T02:51:31;18.60;85.10
40622;DHT22;26324;52.040;11.528;2023-07-29T02:53:58;18.60;84.90
40622;DHT22;26324;52.040;11.528;2023-07-29T02:56:25;18.70;84.00
40622;DHT22;26324;52.040;11.528;2023-07-29T02:58:53;18.60;83.70
40622;DHT22;26324;52.040;11.528;2023-07-29T03:01:20;18.60;83.70
40622;DHT22;26324;52.040;11.528;2023-07-29T03:03:47;18.60;83.30
40622;DHT22;26324;52.040;11.528;2023-07-29T03:06:15;18.50;83.00
40622;DHT22;26324;52.040;11.528;2023-07-29T03:08:42;18.40;82.10
40622;DHT22;26324;52.040;11.528;2023-07-29T03:11:13;18.40;82.10
40622;DHT22;26324;52.040;11.528;2023-07-29T03:13:41;18.30;82.90
40622;DHT22;26324;52.040;11.528;2023-07-29T03:16:15;18.30;82.80
40622;DHT22;26324;52.040;11.528;2023-07-29T03:18:49;18.10;82.70
40622;DHT22;26324;52.040;11.528;2023-07-29T03:21:16;18.20;82.60
40622;DHT22;26324;52.040;11.528;2023-07-29T03:23:44;18.10;82.60
40622;DHT22;26324;52.040;11.528;2023-07-29T03:26:11;17.90;83.90
40622;DHT22;26324;52.040;11.528;2023-07-29T03:28:40;17.90;84.20
40622;DHT22;26324;52.040;11.528;2023-07-29T03:31:08;17.90;83.70
40622;DHT22;26324;52.040;11.528;2023-07-29T03:33:36;17.90;83.80
40622;DHT22;26324;52.040;11.528;2023-07-29T03:36:04;17.90;84.60
40622;DHT22;26324;52.040;11.528;2023-07-29T03:38:32;17.90;85.20
40622;DHT22;26324;52.040;11.528;2023-07-29T03:41:02;17.90;85.80
40622;DHT22;26324;52.040;11.528;2023-07-29T03:43:30;17.90;86.20
40622;DHT22;26324;52.040;11.528;2023-07-29T03:46:01;17.90;86.20
40622;DHT22;26324;52.040;11.528;2023-07-29T03:48:28;18.00;85.70
40622;DHT22;26324;52.040;11.528;2023-07-29T03:50:56;18.00;85.30
40622;DHT22;26324;52.040;11.528;2023-07-29T03:53:23;18.00;84.80
40622;DHT22;26324;52.040;11.528;2023-07-29T03:55:50;18.00;84.80
40622;DHT22;26324;52.040;11.528;2023-07-29T03:58:18;18.00;84.60
40622;DHT22;26324;52.040;11.528;2023-07-29T04:00:45;18.10;84.30
40622;DHT22;26324;52.040;11.528;2023-07-29T04:03:20;18.10;84.70
40622;DHT22;26324;52.040;11.528;2023-07-29T04:05:48;18.00;85.00
40622;DHT22;26324;52.040;11.528;2023-07-29T04:08:16;18.00;85.40
40622;DHT22;26324;52.040;11.528;2023-07-29T04:10:43;17.90;85.90
40622;DHT22;26324;52.040;11.528;2023-07-29T04:13:10;17.90;86.10
40622;DHT22;26324;52.040;11.528;2023-07-29T04:15:37;18.00;86.80
40622;DHT22;26324;52.040;11.528;2023-07-29T04:18:05;18.10;86.80
40622;DHT22;26324;52.040;11.528;2023-07-29T04:20:33;18.10;86.60
40622;DHT22;26324;52.040;11.528;2023-07-29T04:23:01;18.20;86.60
40622;DHT22;26324;52.040;11.528;2023-07-29T04:25:28;18.30;86.50
40622;DHT22;26324;52.040;11.528;2023-07-29T04:27:56;18.40;86.50
40622;DHT22;26324;52.040;11.528;2023-07-29T04:30:24;18.50;86.40
40622;DHT22;26324;52.040;11.528;2023-07-29T04:32:52;18.60;85.90
40622;DHT22;26324;52.040;11.528;2023-07-29T04:35:19;18.70;85.80
40622;DHT22;26324;52.040;11.528;2023-07-29T04:37:47;18.80;85.60
40622;DHT22;26324;52.040;11.528;2023-07-29T04:40:15;19.00;85.50
40622;DHT22;26324;52.040;11.528;2023-07-29T04:42:43;19.10;85.30
40622;DHT22;26324;52.040;11.528;2023-07-29T04:45:10;19.10;84.80
40622;DHT22;26324;52.040;11.528;2023-07-29T04:47:37;19.20;84.80
40622;DHT22;26324;52.040;11.528;2023-07-29T04:50:05;19.30;84.40
40622;DHT22;26324;52.040;11.528;2023-07-29T04:52:33;19.40;84.20
40622;DHT22;26324;52.040;11.528;2023-07-29T04:55:25;19.40;84.10
40622;DHT22;26324;52.040;11.528;2023-07-29T04:57:53;19.50;84.20
40622;DHT22;26324;52.040;11.528;2023-07-29T05:00:20;19.70;84.00
40622;DHT22;26324;52.040;11.528;2023-07-29T05:02:48;19.90;83.50
40622;DHT22;26324;52.040;11.528;2023-07-29T05:05:15;20.10;83.10
40622;DHT22;26324;52.040;11.528;2023-07-29T05:07:43;20.30;82.60
40622;DHT22;26324;52.040;11.528;2023-07-29T05:10:10;20.50;82.20
40622;DHT22;26324;52.040;11.528;2023-07-29T05:12:38;20.60;81.80
40622;DHT22;26324;52.040;11.528;2023-07-29T05:15:06;20.80;81.40
40622;DHT22;26324;52.040;11.528;2023-07-29T05:17:33;20.80;81.10
40622;DHT22;26324;52.040;11.528;2023-07-29T05:20:01;20.90;80.70
40622;DHT22;26324;52.040;11.528;2023-07-29T05:22:29;20.90;80.80
40622;DHT22;26324;52.040;11.528;2023-07-29T05:24:56;21.00;80.70
40622;DHT22;26324;52.040;11.528;2023-07-29T05:27:23;21.00;80.50
40622;DHT22;26324;52.040;11.528;2023-07-29T05:29:51;21.00;80.00
40622;DHT22;26324;52.040;11.528;2023-07-29T05:32:18;21.00;79.90
40622;DHT22;26324;52.040;11.528;2023-07-29T05:34:45;20.90;80.00
40622;DHT22;26324;52.040;11.528;2023-07-29T05:37:13;20.90;80.00
40622;DHT22;26324;52.040;11.528;2023-07-29T05:39:40;20.90;79.90
40622;DHT22;26324;52.040;11.528;2023-07-29T05:42:08;20.90;79.90
40622;DHT22;26324;52.040;11.528;2023-07-29T05:44:35;21.00;80.30
40622;DHT22;26324;52.040;11.528;2023-07-29T05:47:02;20.90;80.40
40622;DHT22;26324;52.040;11.528;2023-07-29T05:49:30;21.00;81.00
40622;DHT22;26324;52.040;11.528;2023-07-29T05:51:57;20.80;80.60
40622;DHT22;26324;52.040;11.528;2023-07-29T05:54:25;20.90;80.60
40622;DHT22;26324;52.040;11.528;2023-07-29T05:56:52;20.80;81.00
40622;DHT22;26324;52.040;11.528;2023-07-29T05:59:20;20.90;80.90
40622;DHT22;26324;52.040;11.528;2023-07-29T06:01:50;21.10;80.60
40622;DHT22;26324;52.040;11.528;2023-07-29T06:04:17;21.10;79.70
40622;DHT22;26324;52.040;11.528;2023-07-29T06:06:45;21.20;79.60
40622;DHT22;26324;52.040;11.528;2023-07-29T06:09:12;21.30;79.90
40622;DHT22;26324;52.040;11.528;2023-07-29T06:11:39;21.30;79.50
40622;DHT22;26324;52.040;11.528;2023-07-29T06:14:07;21.50;79.70
40622;DHT22;26324;52.040;11.528;2023-07-29T06:16:34;21.50;78.50
40622;DHT22;26324;52.040;11.528;2023-07-29T06:19:02;21.60;78.00
40622;DHT22;26324;52.040;11.528;2023-07-29T06:21:29;21.70;78.40
40622;DHT22;26324;52.040;11.528;2023-07-29T06:23:56;21.80;77.40
40622;DHT22;26324;52.040;11.528;2023-07-29T06:26:24;21.80;78.20
40622;DHT22;26324;52.040;11.528;2023-07-29T06:28:51;22.00;77.20
40622;DHT22;26324;52.040;11.528;2023-07-29T06:31:18;22.00;76.80
40622;DHT22;26324;52.040;11.528;2023-07-29T06:33:46;22.10;76.90
40622;DHT22;26324;52.040;11.528;2023-07-29T06:36:13;22.20;76.60
40622;DHT22;26324;52.040;11.528;2023-07-29T06:38:40;22.20;76.70
40622;DHT22;26324;52.040;11.528;2023-07-29T06:41:09;22.30;76.30
40622;DHT22;26324;52.040;11.528;2023-07-29T06:43:40;22.40;75.20
40622;DHT22;26324;52.040;11.528;2023-07-29T06:46:07;22.30;75.10
40622;DHT22;26324;52.040;11.528;2023-07-29T06:48:34;22.40;75.10
40622;DHT22;26324;52.040;11.528;2023-07-29T06:51:02;22.40;74.80
40622;DHT22;26324;52.040;11.528;2023-07-29T06:53:29;22.20;75.20
40622;DHT22;26324;52.040;11.528;2023-07-29T06:56:00;22.20;75.50
40622;DHT22;26324;52.040;11.528;2023-07-29T06:58:28;22.00;75.50
40622;DHT22;26324;52.040;11.528;2023-07-29T07:00:55;21.90;75.70
40622;DHT22;26324;52.040;11.528;2023-07-29T07:03:23;21.70;76.90
40622;DHT22;26324;52.040;11.528;2023-07-29T07:05:51;21.60;78.50
40622;DHT22;26324;52.040;11.528;2023-07-29T07:08:18;21.60;79.20
40622;DHT22;26324;52.040;11.528;2023-07-29T07:10:47;21.50;79.90
40622;DHT22;26324;52.040;11.528;2023-07-29T07:13:14;21.40;81.10
40622;DHT22;26324;52.040;11.528;2023-07-29T07:15:42;21.40;81.80
40622;DHT22;26324;52.040;11.528;2023-07-29T07:18:09;21.50;82.20
40622;DHT22;26324;52.040;11.528;2023-07-29T07:20:36;21.60;82.40
40622;DHT22;26324;52.040;11.528;2023-07-29T07:23:04;21.60;82.40
40622;DHT22;26324;52.040;11.528;2023-07-29T07:25:32;21.70;82.00
40622;DHT22;26324;52.040;11.528;2023-07-29T07:27:59;21.80;82.00
40622;DHT22;26324;52.040;11.528;2023-07-29T07:30:52;21.70;82.10
40622;DHT22;26324;52.040;11.528;2023-07-29T07:33:19;21.70;82.00
40622;DHT22;26324;52.040;11.528;2023-07-29T07:35:46;21.70;82.80
40622;DHT22;26324;52.040;11.528;2023-07-29T07:38:13;21.80;82.80
40622;DHT22;26324;52.040;11.528;2023-07-29T07:40:41;21.70;82.30
40622;DHT22;26324;52.040;11.528;2023-07-29T07:43:08;21.80;82.30
40622;DHT22;26324;52.040;11.528;2023-07-29T07:45:36;21.80;82.00
40622;DHT22;26324;52.040;11.528;2023-07-29T07:48:03;21.80;82.40
40622;DHT22;26324;52.040;11.528;2023-07-29T07:50:30;21.80;82.00
40622;DHT22;26324;52.040;11.528;2023-07-29T07:52:58;21.60;82.00
40622;DHT22;26324;52.040;11.528;2023-07-29T07:55:25;21.70;81.90
40622;DHT22;26324;52.040;11.528;2023-07-29T07:57:53;21.70;82.90
40622;DHT22;26324;52.040;11.528;2023-07-29T08:00:20;21.80;82.20
40622;DHT22;26324;52.040;11.528;2023-07-29T08:02:47;21.90;82.30
40622;DHT22;26324;52.040;11.528;2023-07-29T08:05:15;21.90;82.30
40622;DHT22;26324;52.040;11.528;2023-07-29T08:07:42;21.80;82.90
40622;DHT22;26324;52.040;11.528;2023-07-29T08:10:10;21.90;83.00
40622;DHT22;26324;52.040;11.528;2023-07-29T08:12:37;22.00;81.70
40622;DHT22;26324;52.040;11.528;2023-07-29T08:15:05;21.90;81.60
40622;DHT22;26324;52.040;11.528;2023-07-29T08:17:32;21.80;82.10
40622;DHT22;26324;52.040;11.528;2023-07-29T08:20:00;21.80;81.60
40622;DHT22;26324;52.040;11.528;2023-07-29T08:22:27;21.70;82.20
40622;DHT22;26324;52.040;11.528;2023-07-29T08:24:55;21.80;82.80
40622;DHT22;26324;52.040;11.528;2023-07-29T08:27:22;22.00;83.40
40622;DHT22;26324;52.040;11.528;2023-07-29T08:29:49;22.00;82.90
40622;DHT22;26324;52.040;11.528;2023-07-29T08:32:16;22.00;83.20
40622;DHT22;26324;52.040;11.528;2023-07-29T08:34:44;21.90;82.10
40622;DHT22;26324;52.040;11.528;2023-07-29T08:37:11;22.00;81.80
40622;DHT22;26324;52.040;11.528;2023-07-29T08:39:38;22.00;81.70
40622;DHT22;26324;52.040;11.528;2023-07-29T08:42:11;21.90;81.90
40622;DHT22;26324;52.040;11.528;2023-07-29T08:44:43;21.80;82.00
40622;DHT22;26324;52.040;11.528;2023-07-29T08:47:11;21.50;82.30
40622;DHT22;26324;52.040;11.528;2023-07-29T08:49:42;21.30;83.30
40622;DHT22;26324;52.040;11.528;2023-07-29T08:52:11;21.00;84.40
40622;DHT22;26324;52.040;11.528;2023-07-29T08:54:39;20.60;86.20
40622;DHT22;26324;52.040;11.528;2023-07-29T08:57:06;20.50;87.20
40622;DHT22;26324;52.040;11.528;2023-07-29T08:59:34;20.30;87.40
40622;DHT22;26324;52.040;11.528;2023-07-29T09:02:01;20.10;87.40
40622;DHT22;26324;52.040;11.528;2023-07-29T09:04:29;19.90;88.50
40622;DHT22;26324;52.040;11.528;2023-07-29T09:06:56;19.80;88.50
40622;DHT22;26324;52.040;11.528;2023-07-29T09:09:25;19.70;87.70
40622;DHT22;26324;52.040;11.528;2023-07-29T09:11:53;19.70;88.40
40622;DHT22;26324;52.040;11.528;2023-07-29T09:14:20;19.40;87.20
40622;DHT22;26324;52.040;11.528;2023-07-29T09:16:48;19.20;88.00
40622;DHT22;26324;52.040;11.528;2023-07-29T09:19:16;19.20;88.10
40622;DHT22;26324;52.040;11.528;2023-07-29T09:21:46;19.10;87.40
40622;DHT22;26324;52.040;11.528;2023-07-29T09:24:16;19.10;88.00
40622;DHT22;26324;52.040;11.528;2023-07-29T09:26:49;18.90;88.70
40622;DHT22;26324;52.040;11.528;2023-07-29T09:29:22;18.60;89.10
40622;DHT22;26324;52.040;11.528;2023-07-29T09:31:50;18.50;89.50
40622;DHT22;26324;52.040;11.528;2023-07-29T09:34:17;18.50;89.40
40622;DHT22;26324;52.040;11.528;2023-07-29T09:36:45;18.30;89.40
40622;DHT22;26324;52.040;11.528;2023-07-29T09:39:12;18.30;89.10
40622;DHT22;26324;52.040;11.528;2023-07-29T09:41:47;18.10;89.20
40622;DHT22;26324;52.040;11.528;2023-07-29T09:44:15;18.10;88.50
40622;DHT22;26324;52.040;11.528;2023-07-29T09:46:45;18.10;89.20
40622;DHT22;26324;52.040;11.528;2023-07-29T09:49:13;18.30;89.50
40622;DHT22;26324;52.040;11.528;2023-07-29T09:51:40;18.50;89.30
40622;DHT22;26324;52.040;11.528;2023-07-29T09:54:08;18.80;89.80
40622;DHT22;26324;52.040;11.528;2023-07-29T09:56:41;19.00;88.80
40622;DHT22;26324;52.040;11.528;2023-07-29T09:59:09;19.10;88.80
40622;DHT22;26324;52.040;11.528;2023-07-29T10:01:37;19.40;88.40
40622;DHT22;26324;52.040;11.528;2023-07-29T10:04:06;19.60;87.60
40622;DHT22;26324;52.040;11.528;2023-07-29T10:06:37;19.80;86.00
40622;DHT22;26324;52.040;11.528;2023-07-29T10:09:05;19.80;84.20
40622;DHT22;26324;52.040;11.528;2023-07-29T10:11:34;19.80;84.50
40622;DHT22;26324;52.040;11.528;2023-07-29T10:14:03;20.00;85.20
40622;DHT22;26324;52.040;11.528;2023-07-29T10:16:36;20.20;84.20
40622;DHT22;26324;52.040;11.528;2023-07-29T10:19:07;20.40;84.90
40622;DHT22;26324;52.040;11.528;2023-07-29T10:21:37;20.60;85.10
40622;DHT22;26324;52.040;11.528;2023-07-29T10:24:09;20.70;84.20
40622;DHT22;26324;52.040;11.528;2023-07-29T10:26:46;20.80;83.90
40622;DHT22;26324;52.040;11.528;2023-07-29T10:29:16;20.90;83.50
40622;DHT22;26324;52.040;11.528;2023-07-29T10:31:45;21.10;83.30
40622;DHT22;26324;52.040;11.528;2023-07-29T10:34:14;21.20;83.40
40622;DHT22;26324;52.040;11.528;2023-07-29T10:36:41;21.40;82.10
40622;DHT22;26324;52.040;11.528;2023-07-29T10:39:09;21.50;82.40
40622;DHT22;26324;52.040;11.528;2023-07-29T10:42:01;21.70;82.10
40622;DHT22;26324;52.040;11.528;2023-07-29T10:47:24;21.90;80.10
40622;DHT22;26324;52.040;11.528;2023-07-29T10:49:54;22.10;79.40
40622;DHT22;26324;52.040;11.528;2023-07-29T10:52:49;22.20;78.90
40622;DHT22;26324;52.040;11.528;2023-07-29T10:55:28;22.60;79.40
40622;DHT22;26324;52.040;11.528;2023-07-29T10:58:15;22.90;77.40
40622;DHT22;26324;52.040;11.528;2023-07-29T11:00:46;23.10;77.70
40622;DHT22;26324;52.040;11.528;2023-07-29T11:03:14;23.30;76.30
40622;DHT22;26324;52.040;11.528;2023-07-29T11:05:43;23.50;75.80
40622;DHT22;26324;52.040;11.528;2023-07-29T11:11:02;23.70;75.00
40622;DHT22;26324;52.040;11.528;2023-07-29T11:13:31;23.60;74.00
40622;DHT22;26324;52.040;11.528;2023-07-29T11:15:59;23.80;74.80
40622;DHT22;26324;52.040;11.528;2023-07-29T11:18:32;23.90;74.30
40622;DHT22;26324;52.040;11.528;2023-07-29T11:21:00;23.90;73.30
40622;DHT22;26324;52.040;11.528;2023-07-29T11:25:57;23.70;75.50
40622;DHT22;26324;52.040;11.528;2023-07-29T11:28:26;23.90;75.80
40622;DHT22;26324;52.040;11.528;2023-07-29T11:30:55;24.10;75.40
40622;DHT22;26324;52.040;11.528;2023-07-29T11:33:25;23.80;75.00
40622;DHT22;26324;52.040;11.528;2023-07-29T11:35:53;23.50;75.60
40622;DHT22;26324;52.040;11.528;2023-07-29T11:38:21;23.30;75.50
40622;DHT22;26324;52.040;11.528;2023-07-29T11:40:57;23.10;77.20
40622;DHT22;26324;52.040;11.528;2023-07-29T11:43:25;23.00;78.10
40622;DHT22;26324;52.040;11.528;2023-07-29T11:45:54;22.90;78.30
40622;DHT22;26324;52.040;11.528;2023-07-29T11:48:32;22.70;80.40
40622;DHT22;26324;52.040;11.528;2023-07-29T11:51:00;22.70;79.80
40622;DHT22;26324;52.040;11.528;2023-07-29T11:53:29;22.70;81.30
40622;DHT22;26324;52.040;11.528;2023-07-29T11:55:58;22.70;81.30
40622;DHT22;26324;52.040;11.528;2023-07-29T11:58:26;22.80;82.60
40622;DHT22;26324;52.040;11.528;2023-07-29T12:00:53;23.00;82.20
40622;DHT22;26324;52.040;11.528;2023-07-29T12:03:21;23.40;82.80
40622;DHT22;26324;52.040;11.528;2023-07-29T12:05:49;23.50;82.40
40622;DHT22;26324;52.040;11.528;2023-07-29T12:08:17;23.50;79.70
40622;DHT22;26324;52.040;11.528;2023-07-29T12:10:44;23.50;77.70
40622;DHT22;26324;52.040;11.528;2023-07-29T12:13:12;23.50;78.10
40622;DHT22;26324;52.040;11.528;2023-07-29T12:15:40;23.60;75.70
40622;DHT22;26324;52.040;11.528;2023-07-29T12:18:07;23.70;75.70
40622;DHT22;26324;52.040;11.528;2023-07-29T12:20:35;23.80;76.20
40622;DHT22;26324;52.040;11.528;2023-07-29T12:23:03;23.80;74.00
40622;DHT22;26324;52.040;11.528;2023-07-29T12:25:33;23.90;76.10
40622;DHT22;26324;52.040;11.528;2023-07-29T12:28:07;24.10;72.70
40622;DHT22;26324;52.040;11.528;2023-07-29T12:30:41;24.10;73.80
40622;DHT22;26324;52.040;11.528;2023-07-29T12:33:09;24.30;74.60
40622;DHT22;26324;52.040;11.528;2023-07-29T12:35:37;24.50;75.10
40622;DHT22;26324;52.040;11.528;2023-07-29T12:38:05;24.80;71.10
40622;DHT22;26324;52.040;11.528;2023-07-29T12:40:37;24.70;70.00
40622;DHT22;26324;52.040;11.528;2023-07-29T12:43:04;24.50;71.30
40622;DHT22;26324;52.040;11.528;2023-07-29T12:45:36;24.40;72.30
40622;DHT22;26324;52.040;11.528;2023-07-29T12:48:03;24.40;72.70
40622;DHT22;26324;52.040;11.528;2023-07-29T12:50:30;24.40;73.60
40622;DHT22;26324;52.040;11.528;2023-07-29T12:52:59;24.30;73.70
40622;DHT22;26324;52.040;11.528;2023-07-29T12:55:26;24.30;72.30
40622;DHT22;26324;52.040;11.528;2023-07-29T12:57:54;24.40;72.10
40622;DHT22;26324;52.040;11.528;2023-07-29T13:00:21;24.40;73.10
40622;DHT22;26324;52.040;11.528;2023-07-29T13:02:48;24.40;73.50
40622;DHT22;26324;52.040;11.528;2023-07-29T13:05:16;24.50;71.80
40622;DHT22;26324;52.040;11.528;2023-07-29T13:07:44;24.30;71.90
40622;DHT22;26324;52.040;11.528;2023-07-29T13:10:12;24.50;71.30
40622;DHT22;26324;52.040;11.528;2023-07-29T13:12:40;24.60;71.40
40622;DHT22;26324;52.040;11.528;2023-07-29T13:15:08;24.70;72.00
40622;DHT22;26324;52.040;11.528;2023-07-29T13:17:35;24.60;70.70
40622;DHT22;26324;52.040;11.528;2023-07-29T13:20:05;24.70;71.80
40622;DHT22;26324;52.040;11.528;2023-07-29T13:22:33;24.70;72.00
40622;DHT22;26324;52.040;11.528;2023-07-29T13:25:00;25.30;72.60
40622;DHT22;26324;52.040;11.528;2023-07-29T13:27:28;25.70;70.50
40622;DHT22;26324;52.040;11.528;2023-07-29T13:29:56;26.10;66.80
40622;DHT22;26324;52.040;11.528;2023-07-29T13:32:23;26.50;63.50
40622;DHT22;26324;52.040;11.528;2023-07-29T13:34:50;27.00;61.40
40622;DHT22;26324;52.040;11.528;2023-07-29T13:37:18;27.20;56.50
40622;DHT22;26324;52.040;11.528;2023-07-29T13:39:45;26.70;57.30
40622;DHT22;26324;52.040;11.528;2023-07-29T13:42:13;27.00;57.40
40622;DHT22;26324;52.040;11.528;2023-07-29T13:44:40;27.30;57.20
40622;DHT22;26324;52.040;11.528;2023-07-29T13:47:07;27.70;56.60
40622;DHT22;26324;52.040;11.528;2023-07-29T13:49:35;27.90;53.30
40622;DHT22;26324;52.040;11.528;2023-07-29T13:52:02;27.70;54.50
40622;DHT22;26324;52.040;11.528;2023-07-29T13:54:30;27.40;54.40
40622;DHT22;26324;52.040;11.528;2023-07-29T13:56:57;26.60;57.50
40622;DHT22;26324;52.040;11.528;2023-07-29T13:59:25;26.80;56.10
40622;DHT22;26324;52.040;11.528;2023-07-29T14:01:52;27.00;54.80
40622;DHT22;26324;52.040;11.528;2023-07-29T14:04:20;27.60;52.80
40622;DHT22;26324;52.040;11.528;2023-07-29T14:06:47;27.60;51.60
40622;DHT22;26324;52.040;11.528;2023-07-29T14:09:22;27.60;49.00
40622;DHT22;26324;52.040;11.528;2023-07-29T14:11:49;27.80;49.00
40622;DHT22;26324;52.040;11.528;2023-07-29T14:14:17;27.70;49.60
40622;DHT22;26324;52.040;11.528;2023-07-29T14:16:48;27.30;50.00
40622;DHT22;26324;52.040;11.528;2023-07-29T14:19:16;27.60;49.80
40622;DHT22;26324;52.040;11.528;2023-07-29T14:21:44;27.30;50.90
40622;DHT22;26324;52.040;11.528;2023-07-29T14:24:11;27.10;49.80
40622;DHT22;26324;52.040;11.528;2023-07-29T14:26:38;26.90;49.80
40622;DHT22;26324;52.040;11.528;2023-07-29T14:29:06;27.10;48.90
40622;DHT22;26324;52.040;11.528;2023-07-29T14:31:33;27.60;48.70
40622;DHT22;26324;52.040;11.528;2023-07-29T14:34:01;28.40;45.00
40622;DHT22;26324;52.040;11.528;2023-07-29T14:36:28;28.80;43.70
40622;DHT22;26324;52.040;11.528;2023-07-29T14:38:56;29.30;39.80
40622;DHT22;26324;52.040;11.528;2023-07-29T14:41:23;28.90;38.60
40622;DHT22;26324;52.040;11.528;2023-07-29T14:43:51;28.80;38.20
40622;DHT22;26324;52.040;11.528;2023-07-29T14:46:18;29.10;37.60
40622;DHT22;26324;52.040;11.528;2023-07-29T14:48:45;29.70;36.80
40622;DHT22;26324;52.040;11.528;2023-07-29T14:51:14;29.90;38.40
40622;DHT22;26324;52.040;11.528;2023-07-29T14:53:41;30.10;38.20
40622;DHT22;26324;52.040;11.528;2023-07-29T14:56:09;30.10;39.60
40622;DHT22;26324;52.040;11.528;2023-07-29T14:58:36;29.80;39.50
40622;DHT22;26324;52.040;11.528;2023-07-29T15:01:03;29.50;40.10
40622;DHT22;26324;52.040;11.528;2023-07-29T15:03:31;29.60;41.20
40622;DHT22;26324;52.040;11.528;2023-07-29T15:05:58;29.20;41.10
40622;DHT22;26324;52.040;11.528;2023-07-29T15:08:27;28.90;41.70
40622;DHT22;26324;52.040;11.528;2023-07-29T15:10:55;28.90;41.60
40622;DHT22;26324;52.040;11.528;2023-07-29T15:13:22;29.00;42.10
40622;DHT22;26324;52.040;11.528;2023-07-29T15:15:49;29.60;40.90
40622;DHT22;26324;52.040;11.528;2023-07-29T15:18:18;30.30;38.00
40622;DHT22;26324;52.040;11.528;2023-07-29T15:20:45;30.40;37.80
40622;DHT22;26324;52.040;11.528;2023-07-29T15:23:12;30.60;38.10
40622;DHT22;26324;52.040;11.528;2023-07-29T15:25:40;30.50;39.00
40622;DHT22;26324;52.040;11.528;2023-07-29T15:28:07;30.80;37.30
40622;DHT22;26324;52.040;11.528;2023-07-29T15:30:38;30.10;38.90
40622;DHT22;26324;52.040;11.528;2023-07-29T15:33:08;30.20;37.50
40622;DHT22;26324;52.040;11.528;2023-07-29T15:35:39;30.00;38.60